createdAt,value
2023-01-23T00:00:54.265Z,52.08
2023-01-23T00:03:21.142Z,49.95
2023-01-23T00:06:00.234Z,44.35
2023-01-23T00:08:27.040Z,42.13
2023-01-23T00:10:53.903Z,40.92
2023-01-23T00:13:21.084Z,38.53
2023-01-23T00:15:48.252Z,37.30
2023-01-23T00:18:15.518Z,35.08
2023-01-23T00:20:42.499Z,35.22
2023-01-23T00:23:11.135Z,33.05
2023-01-23T00:25:38.101Z,32.33
2023-01-23T00:28:05.196Z,32.63
2023-01-23T00:30:32.447Z,31.65
2023-01-23T00:32:59.335Z,30.13
2023-01-23T00:35:26.145Z,28.58
2023-01-23T00:37:53.126Z,29.50
2023-01-23T00:40:20.153Z,28.08
2023-01-23T00:42:47.245Z,28.63
2023-01-23T00:45:14.115Z,28.23
2023-01-23T00:47:40.963Z,27.23
2023-01-23T00:50:08.303Z,27.33
2023-01-23T00:52:35.214Z,24.30
2023-01-23T00:55:02.404Z,25.98
2023-01-23T00:57:30.368Z,25.58
2023-01-23T00:59:57.253Z,24.70
2023-01-23T01:02:24.252Z,23.92
2023-01-23T01:04:51.171Z,25.05
2023-01-23T01:07:18.017Z,23.33
2023-01-23T01:09:44.803Z,22.55
2023-01-23T01:12:11.596Z,23.38
2023-01-23T01:14:38.387Z,22.92
2023-01-23T01:17:05.155Z,22.67
2023-01-23T01:19:31.859Z,21.70
2023-01-23T01:21:58.666Z,22.17
2023-01-23T01:24:26.657Z,21.60
2023-01-23T01:26:53.570Z,21.33
2023-01-23T01:29:20.356Z,20.88
2023-01-23T01:31:47.181Z,20.30
2023-01-23T01:34:14.075Z,19.85
2023-01-23T01:36:40.854Z,19.77
2023-01-23T01:39:07.668Z,20.88
2023-01-23T01:41:35.703Z,19.02
2023-01-23T01:44:02.681Z,18.73
2023-01-23T01:46:31.028Z,19.88
2023-01-23T01:49:07.034Z,19.35
2023-01-23T01:51:41.487Z,18.98
2023-01-23T01:54:22.047Z,19.50
2023-01-23T01:56:54.725Z,18.58
2023-01-23T01:59:24.344Z,17.80
2023-01-23T02:04:18.760Z,16.88
2023-01-23T02:06:45.609Z,17.33
2023-01-23T02:09:19.843Z,17.15
2023-01-23T02:11:46.649Z,17.38
2023-01-23T02:14:14.521Z,16.23
2023-01-23T02:16:46.345Z,17.48
2023-01-23T02:19:51.975Z,17.08
2023-01-23T02:22:43.404Z,15.30
2023-01-23T02:27:49.186Z,14.97
2023-01-23T02:30:16.084Z,15.63
2023-01-23T02:32:42.788Z,15.23
2023-01-23T02:37:52.906Z,15.05
2023-01-23T02:40:22.265Z,14.63
2023-01-23T02:42:50.409Z,14.50
2023-01-23T02:45:17.404Z,14.50
2023-01-23T02:47:44.192Z,14.40
2023-01-23T02:50:11.329Z,14.05
2023-01-23T02:52:38.117Z,14.70
2023-01-23T02:55:05.343Z,15.07
2023-01-23T02:57:32.172Z,14.23
2023-01-23T03:00:17.307Z,14.90
2023-01-23T03:02:44.371Z,14.32
2023-01-23T03:05:11.198Z,14.05
2023-01-23T03:07:38.209Z,13.57
2023-01-23T03:10:07.465Z,13.75
2023-01-23T03:12:34.284Z,14.13
2023-01-23T03:15:01.634Z,14.18
2023-01-23T03:17:28.842Z,14.20
2023-01-23T03:19:57.548Z,13.35
2023-01-23T03:22:24.546Z,12.02
2023-01-23T03:24:51.336Z,12.90
2023-01-23T03:27:18.176Z,13.15
2023-01-23T03:30:03.335Z,12.90
2023-01-23T03:32:30.837Z,12.55
2023-01-23T03:34:57.986Z,12.93
2023-01-23T03:37:25.006Z,12.98
2023-01-23T03:40:10.208Z,12.45
2023-01-23T03:42:37.058Z,12.35
2023-01-23T03:45:04.322Z,12.35
2023-01-23T03:47:31.086Z,13.18
2023-01-23T03:49:57.809Z,12.55
2023-01-23T03:52:24.758Z,12.32
2023-01-23T03:54:51.610Z,11.43
2023-01-23T03:57:18.655Z,11.93
2023-01-23T03:59:45.453Z,12.48
2023-01-23T04:02:12.223Z,12.05
2023-01-23T04:04:38.983Z,12.07
2023-01-23T04:07:06.297Z,11.60
2023-01-23T04:09:33.153Z,10.50
2023-01-23T04:12:00.490Z,11.52
2023-01-23T04:14:30.387Z,12.32
2023-01-23T04:16:57.232Z,11.93
2023-01-23T04:19:24.131Z,11.52
2023-01-23T04:21:50.969Z,11.23
2023-01-23T04:24:18.000Z,11.32
2023-01-23T04:26:45.060Z,11.15
2023-01-23T04:29:12.539Z,10.95
2023-01-23T04:31:39.813Z,10.65
2023-01-23T04:34:06.667Z,10.35
2023-01-23T04:36:33.521Z,10.73
2023-01-23T04:39:00.401Z,10.50
2023-01-23T04:41:28.992Z,11.20
2023-01-23T04:43:55.800Z,10.73
2023-01-23T04:46:22.661Z,10.02
2023-01-23T04:48:49.488Z,11.30
2023-01-23T04:51:16.328Z,10.68
2023-01-23T04:53:43.187Z,10.13
2023-01-23T04:56:10.008Z,11.32
2023-01-23T04:58:36.813Z,10.18
2023-01-23T05:01:07.485Z,10.05
2023-01-23T05:03:35.146Z,10.30
2023-01-23T05:06:02.184Z,10.32
2023-01-23T05:08:29.048Z,10.45
2023-01-23T05:10:55.840Z,9.93
2023-01-23T05:13:22.715Z,10.50
2023-01-23T05:15:52.188Z,10.20
2023-01-23T05:18:19.056Z,10.52
2023-01-23T05:20:46.162Z,9.95
2023-01-23T05:23:13.343Z,10.25
2023-01-23T05:25:40.178Z,9.80
2023-01-23T05:28:08.846Z,9.88
2023-01-23T05:30:37.532Z,9.10
2023-01-23T05:33:04.376Z,9.40
2023-01-23T05:35:31.571Z,9.63
2023-01-23T05:37:58.421Z,9.13
2023-01-23T05:40:25.270Z,9.73
2023-01-23T05:42:52.065Z,9.20
2023-01-23T05:45:18.940Z,8.63
2023-01-23T05:47:45.894Z,8.98
2023-01-23T05:50:20.110Z,8.77
2023-01-23T05:52:47.117Z,8.68
2023-01-23T05:55:14.171Z,8.32
2023-01-23T05:57:41.434Z,8.60
2023-01-23T06:00:09.809Z,8.30
2023-01-23T06:02:36.722Z,7.90
2023-01-23T06:05:03.828Z,8.60
2023-01-23T06:07:30.702Z,7.80
2023-01-23T06:09:58.198Z,8.90
2023-01-23T06:12:25.027Z,7.68
2023-01-23T06:14:51.784Z,8.30
2023-01-23T06:17:18.570Z,7.80
2023-01-23T06:19:45.359Z,8.50
2023-01-23T06:22:12.142Z,8.00
2023-01-23T06:24:39.047Z,7.90
2023-01-23T06:27:08.372Z,7.55
2023-01-23T06:29:37.907Z,8.07
2023-01-23T06:32:05.085Z,7.57
2023-01-23T06:34:31.851Z,7.65
2023-01-23T06:36:58.633Z,7.50
2023-01-23T06:39:25.437Z,8.02
2023-01-23T06:41:52.215Z,8.23
2023-01-23T06:44:19.011Z,8.15
2023-01-23T06:46:45.832Z,7.78
2023-01-23T06:49:12.572Z,8.32
2023-01-23T06:51:39.348Z,7.97
2023-01-23T06:54:06.379Z,7.80
2023-01-23T06:56:33.093Z,7.88
2023-01-23T06:58:59.842Z,7.45
2023-01-23T07:01:26.607Z,7.45
2023-01-23T07:03:53.482Z,7.72
2023-01-23T07:06:20.298Z,31.42
2023-01-23T07:08:47.342Z,70.82
2023-01-23T07:11:14.093Z,64.55
2023-01-23T07:13:40.824Z,55.55
2023-01-23T07:16:07.927Z,49.40
2023-01-23T07:18:35.950Z,42.45
2023-01-23T07:21:06.093Z,37.67
2023-01-23T07:23:33.837Z,35.17
2023-01-23T07:26:02.044Z,31.55
2023-01-23T07:28:29.097Z,30.73
2023-01-23T07:30:57.289Z,29.52
2023-01-23T07:33:24.156Z,28.20
2023-01-23T07:35:50.931Z,27.92
2023-01-23T07:38:17.795Z,24.58
2023-01-23T07:40:45.333Z,24.17
2023-01-23T07:43:12.296Z,22.85
2023-01-23T07:45:39.423Z,22.33
2023-01-23T07:48:06.323Z,21.75
2023-01-23T07:50:33.336Z,20.38
2023-01-23T07:53:00.134Z,21.65
2023-01-23T07:55:26.924Z,19.33
2023-01-23T07:57:53.696Z,18.77
2023-01-23T08:00:24.103Z,25.23
2023-01-23T08:02:51.593Z,55.83
2023-01-23T08:05:18.394Z,77.38
2023-01-23T08:07:45.288Z,64.07
2023-01-23T08:10:12.129Z,62.38
2023-01-23T08:12:38.969Z,55.55
2023-01-23T08:15:06.579Z,49.05
2023-01-23T08:17:33.462Z,64.10
2023-01-23T08:20:00.296Z,80.03
2023-01-23T08:22:27.112Z,72.13
2023-01-23T08:24:53.947Z,64.75
2023-01-23T08:27:20.771Z,62.75
2023-01-23T08:29:47.673Z,53.95
2023-01-23T08:32:14.468Z,51.10
2023-01-23T08:34:41.277Z,50.00
2023-01-23T08:37:08.089Z,44.35
2023-01-23T08:39:35.344Z,41.45
2023-01-23T08:42:02.124Z,42.05
2023-01-23T08:44:31.228Z,40.00
2023-01-23T08:46:58.045Z,36.33
2023-01-23T08:49:25.000Z,34.53
2023-01-23T08:51:51.926Z,35.22
2023-01-23T08:54:18.722Z,34.10
2023-01-23T08:56:45.489Z,32.70
2023-01-23T08:59:12.288Z,40.70
2023-01-23T09:01:39.275Z,44.80
2023-01-23T09:04:06.165Z,44.25
2023-01-23T09:06:33.016Z,41.63
2023-01-23T09:08:59.835Z,40.40
2023-01-23T09:11:26.644Z,37.50
2023-01-23T09:13:54.225Z,34.53
2023-01-23T09:16:21.043Z,34.42
2023-01-23T09:18:47.813Z,34.22
2023-01-23T09:21:17.133Z,32.20
2023-01-23T09:23:43.983Z,31.02
2023-01-23T09:26:12.370Z,31.25
2023-01-23T09:28:41.982Z,30.40
2023-01-23T09:31:11.313Z,29.58
2023-01-23T09:33:38.115Z,28.00
2023-01-23T09:36:05.554Z,27.15
2023-01-23T09:38:34.023Z,26.00
2023-01-23T09:41:17.754Z,26.55
2023-01-23T09:43:52.229Z,25.52
2023-01-23T09:46:28.538Z,25.17
2023-01-23T09:49:49.567Z,24.95
2023-01-23T09:52:21.995Z,23.17
2023-01-23T09:54:51.507Z,23.23
2023-01-23T09:57:25.088Z,21.95
2023-01-23T10:00:14.900Z,20.67
2023-01-23T10:02:43.893Z,20.65
2023-01-23T10:05:16.523Z,20.77
2023-01-23T10:08:01.298Z,19.08
2023-01-23T10:10:37.422Z,19.27
2023-01-23T10:13:09.271Z,21.20
2023-01-23T10:15:48.389Z,51.97
2023-01-23T10:18:15.137Z,50.83
2023-01-23T10:20:55.599Z,55.92
2023-01-23T10:23:41.217Z,55.63
2023-01-23T10:26:18.326Z,52.17
2023-01-23T10:28:47.186Z,48.38
2023-01-23T10:31:25.971Z,44.60
2023-01-23T10:34:04.938Z,43.30
2023-01-23T10:37:13.471Z,39.15
2023-01-23T10:40:07.863Z,35.78
2023-01-23T10:45:03.064Z,32.58
2023-01-23T10:47:42.892Z,31.58
2023-01-23T10:50:10.744Z,29.35
2023-01-23T10:52:39.757Z,28.42
2023-01-23T10:55:29.297Z,28.55
2023-01-23T10:57:58.673Z,25.85
2023-01-23T11:00:39.168Z,26.17
2023-01-23T11:03:28.948Z,25.30
2023-01-23T11:06:07.768Z,24.73
2023-01-23T11:08:40.426Z,23.15
2023-01-23T11:11:16.485Z,23.27
2023-01-23T11:13:48.216Z,44.05
2023-01-23T11:16:19.784Z,54.38
2023-01-23T11:18:54.531Z,54.38
2023-01-23T11:21:28.513Z,57.08
2023-01-23T11:24:24.920Z,51.97
2023-01-23T11:27:01.948Z,43.83
2023-01-23T11:29:30.505Z,37.85
2023-01-23T11:32:11.665Z,34.20
2023-01-23T11:34:45.988Z,34.20
2023-01-23T11:37:41.833Z,30.85
2023-01-23T11:40:17.340Z,30.80
2023-01-23T11:42:44.855Z,28.08
2023-01-23T11:45:35.178Z,27.13
2023-01-23T11:48:24.608Z,26.33
2023-01-23T11:51:02.989Z,25.85
2023-01-23T11:53:42.048Z,25.33
2023-01-23T11:56:21.437Z,23.05
2023-01-23T11:58:51.982Z,23.92
2023-01-23T12:01:40.095Z,22.83
2023-01-23T12:04:31.473Z,23.20
2023-01-23T12:07:01.738Z,22.27
2023-01-23T12:09:47.656Z,22.23
2023-01-23T12:12:23.361Z,21.23
2023-01-23T12:15:24.197Z,20.83
2023-01-23T12:18:07.450Z,19.95
2023-01-23T12:20:39.627Z,20.17
2023-01-23T12:23:37.646Z,19.58
2023-01-23T12:26:15.049Z,18.88
2023-01-23T12:29:06.327Z,19.05
2023-01-23T12:31:42.145Z,19.42
2023-01-23T12:34:23.869Z,19.48
2023-01-23T12:37:19.371Z,18.95
2023-01-23T12:40:01.869Z,18.83
2023-01-23T12:43:02.476Z,17.42
2023-01-23T12:45:31.041Z,17.40
2023-01-23T12:48:14.117Z,16.90
2023-01-23T12:50:56.048Z,16.13
2023-01-23T12:53:23.549Z,16.38
2023-01-23T12:56:04.463Z,16.33
2023-01-23T12:58:35.369Z,16.75
2023-01-23T13:01:24.493Z,15.88
2023-01-23T13:04:12.607Z,15.68
2023-01-23T13:07:00.909Z,15.80
2023-01-23T13:09:36.753Z,16.55
2023-01-23T13:12:21.873Z,16.63
2023-01-23T13:15:13.463Z,17.30
2023-01-23T13:18:00.354Z,18.05
2023-01-23T13:20:56.774Z,17.60
2023-01-23T13:23:26.294Z,17.88
2023-01-23T13:26:15.641Z,18.40
2023-01-23T13:28:45.980Z,17.60
2023-01-23T13:31:47.665Z,18.52
2023-01-23T13:34:17.775Z,46.60
2023-01-23T13:36:46.390Z,46.08
2023-01-23T13:39:27.553Z,42.50
2023-01-23T13:42:13.724Z,42.10
2023-01-23T13:45:18.314Z,36.83
2023-01-23T14:22:16.298Z,18.35
2023-01-23T14:24:48.299Z,17.73
2023-01-23T14:27:29.429Z,18.05
2023-01-23T14:30:15.121Z,17.75
2023-01-23T14:32:42.486Z,16.23
2023-01-23T14:35:24.503Z,16.85
2023-01-23T14:37:53.279Z,15.95
2023-01-23T14:40:27.695Z,17.13
2023-01-23T14:43:07.749Z,15.77
2023-01-23T14:45:35.568Z,15.27
2023-01-23T14:48:06.732Z,15.10
2023-01-23T14:50:34.341Z,14.68
2023-01-23T14:53:04.251Z,15.13
2023-01-23T14:55:32.146Z,14.82
2023-01-23T14:58:00.645Z,13.85
2023-01-23T15:00:28.877Z,15.07
2023-01-23T15:02:56.332Z,14.35
2023-01-23T15:05:27.885Z,15.25
2023-01-23T15:08:13.240Z,14.50
2023-01-23T15:10:43.088Z,14.73
2023-01-23T15:13:30.049Z,13.90
2023-01-23T15:16:00.018Z,13.95
2023-01-23T15:18:32.258Z,14.57
2023-01-23T15:21:04.651Z,13.35
2023-01-23T15:23:37.966Z,13.30
2023-01-23T15:26:24.762Z,13.00
2023-01-23T15:28:56.809Z,12.90
2023-01-23T15:31:42.349Z,12.77
2023-01-23T15:34:15.351Z,13.20
2023-01-23T15:36:50.863Z,13.52
2023-01-23T15:39:29.662Z,13.50
2023-01-23T15:42:05.198Z,13.10
2023-01-23T15:44:32.947Z,16.40
2023-01-23T15:47:04.796Z,22.08
2023-01-23T15:49:35.145Z,25.17
2023-01-23T15:52:22.167Z,24.95
2023-01-23T15:54:51.834Z,23.50
2023-01-23T15:59:45.422Z,19.35
2023-01-23T16:02:39.359Z,18.55
2023-01-23T16:05:07.940Z,17.25
2023-01-23T16:07:37.147Z,16.83
2023-01-23T16:10:18.849Z,16.10
2023-01-23T16:12:48.731Z,14.93
2023-01-23T16:15:24.223Z,14.68
2023-01-23T16:17:51.655Z,14.07
2023-01-23T16:20:23.770Z,13.55
2023-01-23T16:22:56.054Z,12.75
2023-01-23T16:25:43.582Z,12.70
2023-01-23T16:28:19.443Z,12.30
2023-01-23T16:30:47.513Z,13.15
2023-01-23T16:33:14.891Z,12.35
2023-01-23T16:35:41.908Z,12.23
2023-01-23T16:38:24.758Z,12.20
2023-01-23T16:40:53.127Z,12.20
2023-01-23T16:43:21.284Z,11.90
2023-01-23T16:45:48.044Z,11.68
2023-01-23T16:48:21.779Z,12.02
2023-01-23T16:51:04.118Z,11.95
2023-01-23T16:53:37.021Z,11.52
2023-01-23T16:56:05.090Z,11.65
2023-01-23T16:58:38.318Z,11.30
2023-01-23T17:01:10.075Z,11.05
2023-01-23T17:03:40.590Z,10.77
2023-01-23T17:06:13.139Z,10.88
2023-01-23T17:08:39.890Z,10.48
2023-01-23T17:11:06.917Z,13.45
2023-01-23T17:13:35.811Z,18.90
2023-01-23T17:16:03.913Z,19.42
2023-01-23T17:18:36.361Z,18.75
2023-01-23T17:21:06.149Z,16.73
2023-01-23T17:23:32.920Z,15.18
2023-01-23T17:26:01.621Z,14.35
2023-01-23T17:28:28.984Z,13.18
2023-01-23T17:30:57.853Z,12.95
2023-01-23T17:33:31.651Z,12.40
2023-01-23T17:35:58.582Z,11.77
2023-01-23T17:38:27.065Z,11.88
2023-01-23T17:40:53.996Z,11.27
2023-01-23T17:43:21.142Z,11.20
2023-01-23T17:45:50.125Z,11.10
2023-01-23T17:48:18.784Z,10.80
2023-01-23T17:50:46.445Z,10.80
2023-01-23T17:53:17.322Z,9.95
2023-01-23T17:55:47.958Z,10.02
2023-01-23T17:58:15.250Z,9.38
2023-01-23T18:03:16.714Z,9.63
2023-01-23T18:05:43.530Z,10.15
2023-01-23T18:08:14.369Z,10.05
2023-01-23T18:10:45.737Z,10.13
2023-01-23T18:13:25.262Z,9.25
2023-01-23T18:16:10.130Z,8.68
2023-01-23T18:18:40.734Z,9.82
2023-01-23T18:21:14.307Z,10.90
2023-01-23T18:23:41.291Z,11.18
2023-01-23T18:26:36.797Z,12.13
2023-01-23T18:29:21.676Z,11.57
2023-01-23T18:31:51.485Z,12.93
2023-01-23T18:34:21.256Z,13.07
2023-01-23T18:39:43.999Z,43.60
2023-01-23T18:42:55.472Z,38.95
2023-01-23T18:45:27.261Z,34.38
2023-01-23T18:47:55.415Z,32.03
2023-01-23T18:50:22.904Z,29.95
2023-01-23T18:53:08.620Z,28.20
2023-01-23T18:58:44.466Z,25.92
2023-01-23T19:01:17.249Z,24.10
2023-01-23T19:03:44.956Z,25.23
2023-01-23T19:06:25.071Z,22.85
2023-01-23T19:08:54.286Z,22.45
2023-01-23T19:11:32.852Z,21.13
2023-01-23T19:14:33.027Z,20.42
2023-01-23T19:17:08.595Z,18.92
2023-01-23T19:19:49.281Z,18.20
2023-01-23T19:22:17.424Z,18.60
2023-01-23T19:24:44.427Z,17.83
2023-01-23T19:27:22.852Z,16.85
2023-01-23T19:29:50.174Z,17.48
2023-01-23T19:32:17.270Z,16.33
2023-01-23T19:34:44.075Z,15.65
2023-01-23T19:37:10.889Z,34.22
2023-01-23T19:39:37.700Z,53.30
2023-01-23T19:42:04.545Z,49.83
2023-01-23T19:44:31.460Z,43.38
2023-01-23T19:46:58.303Z,41.42
2023-01-23T19:49:25.220Z,39.10
2023-01-23T19:51:52.041Z,33.88
2023-01-23T19:54:19.192Z,30.60
2023-01-23T19:56:45.966Z,30.58
2023-01-23T19:59:12.721Z,26.75
2023-01-23T20:01:43.462Z,25.42
2023-01-23T20:04:16.091Z,22.63
2023-01-23T20:06:45.258Z,22.40
2023-01-23T20:09:14.471Z,20.30
2023-01-23T20:11:42.513Z,20.48
2023-01-23T20:14:09.242Z,18.30
2023-01-23T20:16:40.158Z,18.45
2023-01-23T20:19:07.565Z,17.75
2023-01-23T20:21:34.574Z,17.35
2023-01-23T20:24:01.430Z,16.30
2023-01-23T20:26:28.344Z,15.68
2023-01-23T20:28:55.159Z,14.82
2023-01-23T20:31:22.766Z,15.00
2023-01-23T20:33:50.027Z,14.65
2023-01-23T20:36:17.014Z,13.70
2023-01-23T20:38:43.876Z,14.13
2023-01-23T20:41:13.386Z,13.45
2023-01-23T20:43:42.721Z,13.88
2023-01-23T20:46:10.420Z,13.38
2023-01-23T20:48:38.890Z,13.52
2023-01-23T20:51:08.694Z,38.95
2023-01-23T20:53:39.455Z,41.80
2023-01-23T20:56:11.487Z,42.97
2023-01-23T20:58:58.822Z,38.55
2023-01-23T21:01:28.094Z,35.55
2023-01-23T21:03:55.236Z,31.08
2023-01-23T21:06:22.329Z,29.23
2023-01-23T21:08:49.155Z,27.20
2023-01-23T21:11:18.697Z,24.60
2023-01-23T21:13:50.819Z,24.35
2023-01-23T21:16:18.301Z,24.13
2023-01-23T21:18:46.194Z,22.73
2023-01-23T21:21:23.508Z,21.48
2023-01-23T21:23:51.372Z,20.17
2023-01-23T21:26:20.871Z,18.67
2023-01-23T21:28:48.550Z,19.90
2023-01-23T21:31:18.253Z,17.90
2023-01-23T21:36:15.745Z,16.80
2023-01-23T21:38:42.622Z,17.45
2023-01-23T21:41:09.336Z,16.45
2023-01-23T21:43:36.127Z,34.95
2023-01-23T21:46:03.264Z,52.85
2023-01-23T21:48:31.271Z,45.13
2023-01-23T21:51:15.619Z,44.72
2023-01-23T21:53:44.642Z,38.72
2023-01-23T21:56:13.313Z,36.95
2023-01-23T21:58:42.221Z,35.50
2023-01-23T22:01:32.110Z,31.90
2023-01-23T22:04:01.073Z,30.48
2023-01-23T22:06:28.328Z,28.37
2023-01-23T22:08:56.781Z,27.05
2023-01-23T22:11:23.578Z,25.20
2023-01-23T22:13:50.400Z,24.13
2023-01-23T22:16:17.352Z,24.02
2023-01-23T22:18:44.175Z,22.27
2023-01-23T22:21:11.206Z,21.20
2023-01-23T22:23:38.023Z,20.45
2023-01-23T22:26:08.065Z,20.58
2023-01-23T22:28:35.529Z,18.70
2023-01-23T22:31:12.766Z,17.63
2023-01-23T22:33:41.295Z,18.40
2023-01-23T22:36:09.568Z,17.85
2023-01-23T22:38:36.423Z,17.95
2023-01-23T22:41:04.733Z,17.45
2023-01-23T22:43:32.238Z,16.95
2023-01-23T22:46:13.762Z,16.40
2023-01-23T22:48:41.076Z,24.45
2023-01-23T22:51:16.144Z,45.42
2023-01-23T22:53:43.123Z,40.85
2023-01-23T22:56:10.206Z,38.75
2023-01-23T22:58:37.120Z,35.45
2023-01-23T23:01:04.510Z,32.22
2023-01-23T23:03:33.316Z,29.73
2023-01-23T23:06:02.162Z,27.80
2023-01-23T23:08:29.421Z,25.93
2023-01-23T23:11:00.039Z,25.65
2023-01-23T23:13:27.524Z,24.48
2023-01-23T23:15:54.309Z,22.20
2023-01-23T23:18:21.035Z,21.80
2023-01-23T23:20:47.876Z,22.20
2023-01-23T23:23:14.643Z,20.80
2023-01-23T23:25:41.391Z,20.23
2023-01-23T23:28:08.157Z,19.90
2023-01-23T23:30:34.955Z,19.15
2023-01-23T23:33:01.794Z,18.50
2023-01-23T23:35:28.608Z,18.25
2023-01-23T23:37:55.530Z,17.55
2023-01-23T23:40:22.336Z,17.70
2023-01-23T23:42:49.062Z,17.38
2023-01-23T23:45:15.951Z,17.33
2023-01-23T23:47:42.817Z,15.95
2023-01-23T23:50:10.537Z,16.08
2023-01-23T23:52:37.443Z,15.23
2023-01-23T23:55:04.667Z,14.55
2023-01-23T23:57:31.461Z,15.35
2023-01-23T23:59:58.278Z,15.15
